createdAt,value
2018-05-15T00:01:31.484Z,60.20
2018-05-15T00:03:57.395Z,60.20
2018-05-15T00:06:23.155Z,60.32
2018-05-15T00:08:48.907Z,60.34
2018-05-15T00:11:14.757Z,60.42
2018-05-15T00:13:40.510Z,60.69
2018-05-15T00:16:06.307Z,60.82
2018-05-15T00:18:32.088Z,60.71
2018-05-15T00:20:57.834Z,60.74
2018-05-15T00:23:23.583Z,60.77
2018-05-15T00:25:49.336Z,60.73
2018-05-15T00:28:15.087Z,60.86
2018-05-15T00:30:40.816Z,61.00
2018-05-15T00:33:06.576Z,60.88
2018-05-15T00:35:32.335Z,61.00
2018-05-15T00:37:58.219Z,61.07
2018-05-15T00:40:24.081Z,61.22
2018-05-15T00:42:49.810Z,61.27
2018-05-15T00:45:15.554Z,61.58
2018-05-15T00:47:41.333Z,61.73
2018-05-15T00:50:07.087Z,61.77
2018-05-15T00:52:32.844Z,62.01
2018-05-15T00:55:11.023Z,62.26
2018-05-15T00:57:36.782Z,62.43
2018-05-15T01:00:02.924Z,62.47
2018-05-15T01:02:28.764Z,62.73
2018-05-15T01:04:54.596Z,62.97
2018-05-15T01:07:20.348Z,63.26
2018-05-15T01:09:46.117Z,63.47
2018-05-15T01:12:11.883Z,63.54
2018-05-15T01:14:37.633Z,63.45
2018-05-15T01:17:03.395Z,63.67
2018-05-15T01:19:29.155Z,63.59
2018-05-15T01:21:54.899Z,63.82
2018-05-15T01:24:20.711Z,63.99
2018-05-15T01:26:46.482Z,63.97
2018-05-15T01:29:12.321Z,63.97
2018-05-15T01:31:38.040Z,64.22
2018-05-15T01:34:03.888Z,64.32
2018-05-15T01:36:29.772Z,64.61
2018-05-15T01:38:55.636Z,64.85
2018-05-15T01:41:21.375Z,65.16
2018-05-15T01:43:47.117Z,65.05
2018-05-15T01:46:12.968Z,65.17
2018-05-15T01:48:38.728Z,65.17
2018-05-15T01:51:04.481Z,64.97
2018-05-15T01:53:30.323Z,64.68
2018-05-15T01:55:56.119Z,64.76
2018-05-15T01:58:21.879Z,64.56
2018-05-15T02:00:47.768Z,64.49
2018-05-15T02:03:13.623Z,64.40
2018-05-15T02:05:39.378Z,64.38
2018-05-15T02:08:05.239Z,64.62
2018-05-15T02:10:30.984Z,64.78
2018-05-15T02:12:56.731Z,64.62
2018-05-15T02:15:22.511Z,64.95
2018-05-15T02:17:48.247Z,65.07
2018-05-15T02:20:14.016Z,64.99
2018-05-15T02:22:39.790Z,64.93
2018-05-15T02:25:05.560Z,64.93
2018-05-15T02:27:31.306Z,65.00
2018-05-15T02:29:57.206Z,65.33
2018-05-15T02:32:22.977Z,65.34
2018-05-15T02:34:48.722Z,65.55
2018-05-15T02:37:14.484Z,65.79
2018-05-15T02:39:40.245Z,65.80
2018-05-15T02:42:06.024Z,65.72
2018-05-15T02:44:31.788Z,65.81
2018-05-15T02:46:57.711Z,65.81
2018-05-15T02:49:23.464Z,65.82
2018-05-15T02:51:49.253Z,65.99
2018-05-15T02:54:14.997Z,66.35
2018-05-15T02:56:40.802Z,66.44
2018-05-15T02:59:06.576Z,66.30
2018-05-15T03:01:32.494Z,66.32
2018-05-15T03:03:58.263Z,66.46
2018-05-15T03:06:24.023Z,66.64
2018-05-15T03:08:49.779Z,66.82
2018-05-15T03:11:15.532Z,66.87
2018-05-15T03:13:41.317Z,67.07
2018-05-15T03:16:07.154Z,67.19
2018-05-15T03:18:39.911Z,67.65
2018-05-15T03:21:05.669Z,67.90
2018-05-15T03:23:31.484Z,67.90
2018-05-15T03:25:57.256Z,68.15
2018-05-15T03:28:23.097Z,68.32
2018-05-15T03:30:48.854Z,68.64
2018-05-15T03:33:14.628Z,68.70
2018-05-15T03:35:40.422Z,68.83
2018-05-15T03:38:06.179Z,68.87
2018-05-15T03:40:31.967Z,68.89
2018-05-15T03:42:58.147Z,68.79
2018-05-15T03:45:23.904Z,68.95
2018-05-15T03:47:49.677Z,69.08
2018-05-15T03:50:15.424Z,69.30
2018-05-15T03:52:41.180Z,69.40
2018-05-15T03:55:06.948Z,69.53
2018-05-15T03:57:32.716Z,69.58
2018-05-15T03:59:58.465Z,69.65
2018-05-15T04:02:36.639Z,69.77
2018-05-15T04:05:14.643Z,69.77
2018-05-15T04:07:52.779Z,69.81
2018-05-15T04:10:18.539Z,69.77
2018-05-15T04:12:44.312Z,69.99
2018-05-15T04:15:10.068Z,69.87
2018-05-15T04:17:35.826Z,69.91
2018-05-15T04:20:01.681Z,69.81
2018-05-15T04:22:27.573Z,69.73
2018-05-15T04:24:53.328Z,69.53
2018-05-15T04:27:19.088Z,69.42
2018-05-15T04:29:44.873Z,69.31
2018-05-15T04:32:10.631Z,69.21
2018-05-15T04:34:36.383Z,69.01
2018-05-15T04:37:02.151Z,69.20
2018-05-15T04:39:27.899Z,68.88
2018-05-15T04:41:53.655Z,68.71
2018-05-15T04:44:19.519Z,68.61
2018-05-15T04:46:45.290Z,68.36
2018-05-15T04:49:11.091Z,68.25
2018-05-15T04:51:36.832Z,68.12
2018-05-15T04:54:02.607Z,68.11
2018-05-15T04:56:28.383Z,67.91
2018-05-15T04:58:54.147Z,67.40
2018-05-15T05:01:19.884Z,67.05
2018-05-15T05:03:45.677Z,66.89
2018-05-15T05:06:11.420Z,66.69
2018-05-15T05:08:37.179Z,66.50
2018-05-15T05:11:02.960Z,66.19
2018-05-15T05:13:28.779Z,65.84
2018-05-15T05:15:54.643Z,65.71
2018-05-15T05:18:20.426Z,65.70
2018-05-15T05:20:46.176Z,65.97
2018-05-15T05:23:11.952Z,65.14
2018-05-15T05:25:37.744Z,65.01
2018-05-15T05:28:03.519Z,64.36
2018-05-15T05:30:29.268Z,64.43
2018-05-15T05:32:55.187Z,64.44
2018-05-15T05:35:20.957Z,63.79
2018-05-15T05:37:46.736Z,64.03
2018-05-15T05:40:12.568Z,64.12
2018-05-15T05:42:38.273Z,63.60
2018-05-15T05:45:04.111Z,63.67
2018-05-15T05:47:29.932Z,63.43
2018-05-15T05:49:55.686Z,63.39
2018-05-15T05:52:21.435Z,63.51
2018-05-15T05:54:47.205Z,63.28
2018-05-15T05:57:12.971Z,63.16
2018-05-15T05:59:38.737Z,63.09
2018-05-15T06:02:04.527Z,62.98
2018-05-15T06:04:30.280Z,62.88
2018-05-15T06:06:56.046Z,62.35
2018-05-15T06:09:21.822Z,62.28
2018-05-15T06:11:47.596Z,62.46
2018-05-15T06:14:13.520Z,62.75
2018-05-15T06:16:39.286Z,62.61
2018-05-15T06:19:05.031Z,62.42
2018-05-15T06:21:30.895Z,62.28
2018-05-15T06:23:56.654Z,62.48
2018-05-15T06:26:22.433Z,61.97
2018-05-15T06:28:48.176Z,61.16
2018-05-15T06:31:14.088Z,60.03
2018-05-15T06:33:39.828Z,59.94
2018-05-15T06:36:05.603Z,59.69
2018-05-15T06:38:31.459Z,58.45
2018-05-15T06:40:57.143Z,58.63
2018-05-15T06:43:22.911Z,58.23
2018-05-15T06:45:48.684Z,58.02
2018-05-15T06:48:14.431Z,57.93
2018-05-15T06:50:40.329Z,57.97
2018-05-15T06:53:06.236Z,58.00
2018-05-15T06:55:31.984Z,57.71
2018-05-15T06:57:57.750Z,57.44
2018-05-15T07:00:23.532Z,57.18
2018-05-15T07:02:49.283Z,57.75
2018-05-15T07:05:15.032Z,57.30
2018-05-15T07:07:40.876Z,57.11
2018-05-15T07:10:06.574Z,57.13
2018-05-15T07:12:32.317Z,57.05
2018-05-15T07:14:58.095Z,57.04
2018-05-15T07:17:23.898Z,56.50
2018-05-15T07:19:49.639Z,55.92
2018-05-15T07:22:15.391Z,55.40
2018-05-15T07:24:41.168Z,54.99
2018-05-15T07:27:06.929Z,54.46
2018-05-15T07:29:32.772Z,54.12
2018-05-15T07:31:58.531Z,54.54
2018-05-15T07:34:24.273Z,53.89
2018-05-15T07:36:50.058Z,52.87
2018-05-15T07:39:15.807Z,52.58
2018-05-15T07:41:41.592Z,51.05
2018-05-15T07:44:07.356Z,49.90
2018-05-15T07:46:33.119Z,50.05
2018-05-15T07:48:59.015Z,49.64
2018-05-15T07:51:24.804Z,47.41
2018-05-15T07:53:50.550Z,47.78
2018-05-15T07:56:16.337Z,46.60
2018-05-15T07:58:42.092Z,46.36
2018-05-15T08:01:07.872Z,46.07
2018-05-15T08:03:33.647Z,46.08
2018-05-15T08:05:59.506Z,46.20
2018-05-15T08:08:25.267Z,45.77
2018-05-15T08:10:51.037Z,45.80
2018-05-15T08:13:16.783Z,45.56
2018-05-15T08:15:42.553Z,45.04
2018-05-15T08:18:08.332Z,44.04
2018-05-15T08:20:34.090Z,43.79
2018-05-15T08:22:59.837Z,43.52
2018-05-15T08:25:25.603Z,43.82
2018-05-15T08:27:51.352Z,44.33
2018-05-15T08:30:17.095Z,43.79
2018-05-15T08:32:42.856Z,43.77
2018-05-15T08:35:08.604Z,44.16
2018-05-15T08:37:34.464Z,43.92
2018-05-15T08:40:00.139Z,42.97
2018-05-15T08:42:26.016Z,42.82
2018-05-15T08:44:51.802Z,41.91
2018-05-15T08:47:17.595Z,39.15
2018-05-15T08:49:43.353Z,38.17
2018-05-15T08:52:09.134Z,37.30
2018-05-15T08:54:34.930Z,37.94
2018-05-15T08:57:00.688Z,38.47
2018-05-15T08:59:26.440Z,37.11
2018-05-15T09:01:52.231Z,37.06
2018-05-15T09:04:17.988Z,36.86
2018-05-15T09:06:43.747Z,35.90
2018-05-15T09:09:09.511Z,35.30
2018-05-15T09:11:35.271Z,34.91
2018-05-15T09:14:01.125Z,35.04
2018-05-15T09:16:26.888Z,35.91
2018-05-15T09:18:52.771Z,35.70
2018-05-15T09:21:18.515Z,34.72
2018-05-15T09:23:44.375Z,36.29
2018-05-15T09:26:10.112Z,35.70
2018-05-15T09:28:35.872Z,35.13
2018-05-15T09:31:01.836Z,35.12
2018-05-15T09:33:27.762Z,35.23
2018-05-15T09:35:53.520Z,35.06
2018-05-15T09:41:14.098Z,33.91
2018-05-15T09:43:54.830Z,34.05
2018-05-15T09:46:20.581Z,33.35
2018-05-15T09:48:46.332Z,33.50
2018-05-15T09:51:12.106Z,33.67
2018-05-15T09:53:37.852Z,34.16
2018-05-15T09:56:03.643Z,32.86
2018-05-15T09:58:29.727Z,32.26
2018-05-15T10:00:55.615Z,33.54
2018-05-15T10:03:21.504Z,33.20
2018-05-15T10:05:47.284Z,32.68
2018-05-15T10:08:13.115Z,31.55
2018-05-15T10:10:39.091Z,30.70
2018-05-15T10:13:04.607Z,31.37
2018-05-15T10:15:30.355Z,31.59
2018-05-15T10:17:56.103Z,32.30
2018-05-15T10:20:21.865Z,31.55
2018-05-15T10:22:47.595Z,31.82
2018-05-15T10:25:13.381Z,30.93
2018-05-15T10:27:39.216Z,30.97
2018-05-15T10:30:05.023Z,30.43
2018-05-15T10:32:30.768Z,30.24
2018-05-15T10:34:56.530Z,30.25
2018-05-15T10:37:22.280Z,30.17
2018-05-15T10:39:48.050Z,29.67
2018-05-15T10:42:13.807Z,29.77
2018-05-15T10:44:39.551Z,30.23
2018-05-15T10:47:05.304Z,29.84
2018-05-15T10:49:31.219Z,30.06
2018-05-15T10:51:57.063Z,30.22
2018-05-15T10:54:22.819Z,30.04
2018-05-15T10:56:48.601Z,30.51
2018-05-15T10:59:14.356Z,30.77
2018-05-15T11:01:40.111Z,31.44
2018-05-15T11:04:05.891Z,32.00
2018-05-15T11:06:31.643Z,30.82
2018-05-15T11:08:57.612Z,29.72
2018-05-15T11:11:23.388Z,29.47
2018-05-15T11:13:49.153Z,28.43
2018-05-15T11:16:14.907Z,28.61
2018-05-15T11:18:40.723Z,29.05
2018-05-15T11:21:18.886Z,29.59
2018-05-15T11:27:02.183Z,27.78
2018-05-15T11:29:27.965Z,28.49
2018-05-15T11:31:53.712Z,28.65
2018-05-15T11:34:19.475Z,28.59
2018-05-15T11:36:45.257Z,28.94
2018-05-15T11:39:10.991Z,28.87
2018-05-15T11:41:36.794Z,28.16
2018-05-15T11:44:02.532Z,27.39
2018-05-15T11:46:28.298Z,27.72
2018-05-15T11:48:54.489Z,28.45
2018-05-15T11:51:20.416Z,27.88
2018-05-15T11:53:45.608Z,27.23
2018-05-15T11:56:11.372Z,27.67
2018-05-15T11:58:37.111Z,27.62
2018-05-15T12:01:17.860Z,27.40
2018-05-15T12:03:43.676Z,27.58
2018-05-15T12:06:09.404Z,28.10
2018-05-15T12:08:35.207Z,28.19
2018-05-15T12:11:00.978Z,28.62
2018-05-15T12:13:26.860Z,28.31
2018-05-15T12:15:52.623Z,28.39
2018-05-15T12:18:18.419Z,27.91
2018-05-15T12:20:44.154Z,28.42
2018-05-15T12:23:09.931Z,28.12
2018-05-15T12:25:35.710Z,27.71
2018-05-15T12:28:01.801Z,27.18
2018-05-15T12:30:27.690Z,27.09
2018-05-15T12:32:53.463Z,26.76
2018-05-15T12:35:19.215Z,27.56
2018-05-15T12:37:44.963Z,27.80
2018-05-15T12:40:10.746Z,28.09
2018-05-15T12:42:43.497Z,28.56
2018-05-15T12:45:09.274Z,28.03
2018-05-15T12:47:35.027Z,27.83
2018-05-15T12:50:00.811Z,28.44
2018-05-15T12:52:26.568Z,27.39
2018-05-15T12:54:52.323Z,27.08
2018-05-15T12:57:18.123Z,26.97
2018-05-15T12:59:43.879Z,27.02
2018-05-15T13:02:09.615Z,27.16
2018-05-15T13:04:35.400Z,26.65
2018-05-15T13:07:01.173Z,27.16
2018-05-15T13:09:26.937Z,27.11
2018-05-15T13:11:52.756Z,26.97
2018-05-15T13:14:18.520Z,26.83
2018-05-15T13:16:44.277Z,27.59
2018-05-15T13:19:10.059Z,26.93
2018-05-15T13:21:35.829Z,26.87
2018-05-15T13:24:01.827Z,26.70
2018-05-15T13:26:27.631Z,27.30
2018-05-15T13:28:53.378Z,26.87
2018-05-15T13:31:19.155Z,26.82
2018-05-15T13:33:44.927Z,26.64
2018-05-15T13:36:10.676Z,25.73
2018-05-15T13:38:36.418Z,24.86
2018-05-15T13:41:02.270Z,24.16
2018-05-15T13:43:27.982Z,24.35
2018-05-15T13:45:53.739Z,24.75
2018-05-15T13:48:19.522Z,24.72
2018-05-15T13:50:45.283Z,25.19
2018-05-15T13:53:11.045Z,25.39
2018-05-15T13:55:36.819Z,25.89
2018-05-15T13:58:02.596Z,25.76
2018-05-15T14:09:06.169Z,25.88
2018-05-15T14:11:31.959Z,25.69
2018-05-15T14:13:57.708Z,25.34
2018-05-15T14:16:23.573Z,25.47
2018-05-15T14:18:49.339Z,25.67
2018-05-15T14:21:15.087Z,26.39
2018-05-15T14:23:40.845Z,26.87
2018-05-15T14:26:06.648Z,27.34
2018-05-15T14:28:32.398Z,27.28
2018-05-15T14:30:58.147Z,27.40
2018-05-15T14:33:23.940Z,27.99
2018-05-15T14:35:49.727Z,28.23
2018-05-15T14:38:15.487Z,28.65
2018-05-15T14:40:41.288Z,28.80
2018-05-15T14:43:26.932Z,28.14
2018-05-15T14:45:52.703Z,28.70
2018-05-15T14:48:18.446Z,28.37
2018-05-15T14:53:46.238Z,28.72
2018-05-15T14:56:12.019Z,28.75
2018-05-15T14:58:37.779Z,28.96
2018-05-15T15:01:03.555Z,28.71
2018-05-15T15:03:29.353Z,28.35
2018-05-15T15:05:55.124Z,28.19
2018-05-15T15:08:20.875Z,28.63
2018-05-15T15:10:46.635Z,28.41
2018-05-15T15:13:12.387Z,28.44
2018-05-15T15:15:38.162Z,29.02
2018-05-15T15:18:04.060Z,28.83
2018-05-15T15:20:29.866Z,29.04
2018-05-15T15:22:55.628Z,28.65
2018-05-15T15:25:21.487Z,29.07
2018-05-15T15:27:47.164Z,29.24
2018-05-15T15:30:13.087Z,29.64
2018-05-15T15:32:38.819Z,29.33
2018-05-15T15:35:04.601Z,29.43
2018-05-15T15:37:30.367Z,29.44
2018-05-15T15:39:56.198Z,29.69
2018-05-15T15:42:22.005Z,29.55
2018-05-15T15:44:47.777Z,29.71
2018-05-15T15:47:13.515Z,29.58
2018-05-15T15:49:39.279Z,29.15
2018-05-15T15:52:05.101Z,28.58
2018-05-15T15:54:30.964Z,28.39
2018-05-15T15:56:56.863Z,28.17
2018-05-15T15:59:22.632Z,28.30
2018-05-15T16:01:48.395Z,27.54
2018-05-15T16:04:14.207Z,27.99
2018-05-15T16:06:39.992Z,28.46
2018-05-15T16:09:05.981Z,28.59
2018-05-15T16:11:31.733Z,29.18
2018-05-15T16:13:57.534Z,29.04
2018-05-15T16:16:23.279Z,29.31
2018-05-15T16:18:49.032Z,30.11
2018-05-15T16:21:14.789Z,29.91
2018-05-15T16:23:40.548Z,29.74
2018-05-15T16:26:06.295Z,29.77
2018-05-15T16:28:32.077Z,29.19
2018-05-15T16:30:57.819Z,29.62
2018-05-15T16:33:23.603Z,28.79
2018-05-15T16:35:49.375Z,28.78
2018-05-15T16:38:15.120Z,28.94
2018-05-15T16:40:40.859Z,29.28
2018-05-15T16:43:06.619Z,29.83
2018-05-15T16:45:39.383Z,29.80
2018-05-15T16:48:05.135Z,29.23
2018-05-15T16:50:30.907Z,28.90
2018-05-15T16:52:56.749Z,28.70
2018-05-15T16:55:22.516Z,29.14
2018-05-15T16:57:48.275Z,29.78
2018-05-15T17:00:14.028Z,30.24
2018-05-15T17:02:39.820Z,31.00
2018-05-15T17:05:05.567Z,31.08
2018-05-15T17:07:31.327Z,31.11
2018-05-15T17:09:57.169Z,30.98
2018-05-15T17:12:22.924Z,31.17
2018-05-15T17:14:48.712Z,31.32
2018-05-15T17:17:14.460Z,31.31
2018-05-15T17:19:40.322Z,31.52
2018-05-15T17:22:06.100Z,31.47
2018-05-15T17:24:31.875Z,31.54
2018-05-15T17:26:57.631Z,31.67
2018-05-15T17:29:23.389Z,31.83
2018-05-15T17:31:49.167Z,32.40
2018-05-15T17:34:14.917Z,32.73
2018-05-15T17:36:40.697Z,33.06
2018-05-15T17:39:06.470Z,33.31
2018-05-15T17:41:32.220Z,33.37
2018-05-15T17:43:58.113Z,33.65
2018-05-15T17:46:23.870Z,33.67
2018-05-15T17:48:49.613Z,33.75
2018-05-15T17:51:15.388Z,34.04
2018-05-15T17:53:41.149Z,34.37
2018-05-15T17:56:06.900Z,34.50
2018-05-15T17:58:32.772Z,34.68
2018-05-15T18:00:58.554Z,34.75
2018-05-15T18:03:24.315Z,34.95
2018-05-15T18:05:50.096Z,34.89
2018-05-15T18:08:15.861Z,35.19
2018-05-15T18:10:41.639Z,35.61
2018-05-15T18:13:07.382Z,36.00
2018-05-15T18:15:33.119Z,36.48
2018-05-15T18:17:58.911Z,36.85
2018-05-15T18:20:24.667Z,37.25
2018-05-15T18:22:50.440Z,37.53
2018-05-15T18:25:16.223Z,37.60
2018-05-15T18:27:41.965Z,37.78
2018-05-15T18:30:07.703Z,38.02
2018-05-15T18:32:33.556Z,38.19
2018-05-15T18:34:59.343Z,38.60
2018-05-15T18:37:25.087Z,38.96
2018-05-15T18:39:50.853Z,39.14
2018-05-15T18:42:16.611Z,39.18
2018-05-15T18:44:42.388Z,39.50
2018-05-15T18:47:08.139Z,39.86
2018-05-15T18:49:33.980Z,39.76
2018-05-15T18:51:59.752Z,39.93
2018-05-15T18:54:25.503Z,38.89
2018-05-15T18:56:51.282Z,38.47
2018-05-15T18:59:17.048Z,38.42
2018-05-15T19:01:42.806Z,38.61
2018-05-15T19:04:08.564Z,38.50
2018-05-15T19:06:34.295Z,38.94
2018-05-15T19:09:00.091Z,39.26
2018-05-15T19:11:25.860Z,38.74
2018-05-15T19:13:51.702Z,39.06
2018-05-15T19:16:17.445Z,38.09
2018-05-15T19:18:43.208Z,38.14
2018-05-15T19:21:08.983Z,37.20
2018-05-15T19:23:34.785Z,37.92
2018-05-15T19:26:00.548Z,38.08
2018-05-15T19:28:26.300Z,38.03
2018-05-15T19:30:52.055Z,37.40
2018-05-15T19:33:24.093Z,36.81
2018-05-15T19:35:59.812Z,37.05
2018-05-15T19:38:25.592Z,36.34
2018-05-15T19:40:51.367Z,36.79
2018-05-15T19:43:17.125Z,36.89
2018-05-15T19:45:42.899Z,37.04
2018-05-15T19:48:08.647Z,37.00
2018-05-15T19:50:41.203Z,37.35
2018-05-15T19:53:06.965Z,37.39
2018-05-15T19:55:32.808Z,37.52
2018-05-15T19:57:58.804Z,37.83
2018-05-15T20:00:24.574Z,37.95
2018-05-15T20:02:50.331Z,38.37
2018-05-15T20:05:16.120Z,38.73
2018-05-15T20:07:41.859Z,39.19
2018-05-15T20:10:07.632Z,39.38
2018-05-15T20:12:33.452Z,39.72
2018-05-15T20:14:59.376Z,40.16
2018-05-15T20:17:25.128Z,40.41
2018-05-15T20:19:50.892Z,40.78
2018-05-15T20:22:16.699Z,41.30
2018-05-15T20:24:42.459Z,41.43
2018-05-15T20:27:08.235Z,41.85
2018-05-15T20:29:33.986Z,42.18
2018-05-15T20:31:59.745Z,42.44
2018-05-15T20:34:25.535Z,42.92
2018-05-15T20:36:51.279Z,43.14
2018-05-15T20:39:17.037Z,43.50
2018-05-15T20:41:42.796Z,43.92
2018-05-15T20:44:08.568Z,44.07
2018-05-15T20:46:34.375Z,44.23
2018-05-15T20:49:00.131Z,44.28
2018-05-15T20:51:25.900Z,44.62
2018-05-15T20:53:51.683Z,44.78
2018-05-15T20:56:17.444Z,44.97
2018-05-15T20:58:43.212Z,45.27
2018-05-15T21:01:08.984Z,45.07
2018-05-15T21:03:34.753Z,45.22
2018-05-15T21:06:00.668Z,45.72
2018-05-15T21:08:26.441Z,45.76
2018-05-15T21:11:07.184Z,45.86
2018-05-15T21:13:33.007Z,45.82
2018-05-15T21:15:58.765Z,45.58
2018-05-15T21:18:24.559Z,45.78
2018-05-15T21:20:50.381Z,45.97
2018-05-15T21:23:16.121Z,45.96
2018-05-15T21:25:41.865Z,46.11
2018-05-15T21:28:07.653Z,46.18
2018-05-15T21:30:33.415Z,46.25
2018-05-15T21:32:59.169Z,46.36
2018-05-15T21:35:24.949Z,46.50
2018-05-15T21:37:50.708Z,46.83
2018-05-15T21:40:16.459Z,46.90
2018-05-15T21:42:42.239Z,47.15
2018-05-15T21:45:08.012Z,47.26
2018-05-15T21:47:33.774Z,47.63
2018-05-15T21:49:59.571Z,47.72
2018-05-15T21:52:25.324Z,48.03
2018-05-15T21:54:51.071Z,48.57
2018-05-15T21:57:16.852Z,48.80
2018-05-15T21:59:42.608Z,48.97
2018-05-15T22:02:08.379Z,49.36
2018-05-15T22:04:34.152Z,49.54
2018-05-15T22:06:59.928Z,49.98
2018-05-15T22:09:25.722Z,50.38
2018-05-15T22:12:03.811Z,50.56
2018-05-15T22:14:42.056Z,50.90
2018-05-15T22:17:20.131Z,51.15
2018-05-15T22:19:58.279Z,51.45
2018-05-15T22:22:23.976Z,51.72
2018-05-15T22:24:49.720Z,51.71
2018-05-15T22:27:15.480Z,51.95
2018-05-15T22:29:41.283Z,52.20
2018-05-15T22:32:07.048Z,52.31
2018-05-15T22:34:32.814Z,52.36
2018-05-15T22:36:58.614Z,52.46
2018-05-15T22:39:24.384Z,52.66
2018-05-15T22:41:50.176Z,52.63
2018-05-15T22:44:15.952Z,52.73
2018-05-15T22:46:41.740Z,52.83
2018-05-15T22:49:07.483Z,52.74
2018-05-15T22:51:33.254Z,52.86
2018-05-15T22:53:59.063Z,52.72
2018-05-15T22:56:24.803Z,52.82
2018-05-15T22:58:50.588Z,52.88
2018-05-15T23:01:16.347Z,53.29
2018-05-15T23:03:42.104Z,53.40
2018-05-15T23:06:07.958Z,53.42
2018-05-15T23:08:33.715Z,53.49
2018-05-15T23:10:59.488Z,53.41
2018-05-15T23:13:25.279Z,53.13
2018-05-15T23:15:51.107Z,53.20
2018-05-15T23:18:16.784Z,53.29
2018-05-15T23:20:42.547Z,53.42
2018-05-15T23:23:08.282Z,53.55
2018-05-15T23:25:34.029Z,53.67
2018-05-15T23:27:59.799Z,53.63
2018-05-15T23:30:25.617Z,53.67
2018-05-15T23:32:51.375Z,53.74
2018-05-15T23:35:17.132Z,53.74
2018-05-15T23:37:42.888Z,53.87
2018-05-15T23:40:08.645Z,54.00
2018-05-15T23:42:34.488Z,54.03
2018-05-15T23:45:00.248Z,54.13
2018-05-15T23:47:25.987Z,54.16
2018-05-15T23:49:51.757Z,54.02
2018-05-15T23:52:17.542Z,53.97
2018-05-15T23:54:43.284Z,53.97
2018-05-15T23:57:09.056Z,54.16
2018-05-15T23:59:34.814Z,54.36
